sensor_id;sensor_type;location;lat;lon;timestamp;temperature;humidity
758;DHT22;363;48.764;9.172;2023-11-18T00:00:24;7.70;99.90
758;DHT22;363;48.764;9.172;2023-11-18T00:02:51;7.20;99.90
758;DHT22;363;48.764;9.172;2023-11-18T00:05:16;7.10;99.90
758;DHT22;363;48.764;9.172;2023-11-18T00:07:43;7.50;99.90
758;DHT22;363;48.764;9.172;2023-11-18T00:10:09;7.10;99.90
758;DHT22;363;48.764;9.172;2023-11-18T00:12:35;7.50;99.90
758;DHT22;363;48.764;9.172;2023-11-18T00:15:03;7.30;99.90
758;DHT22;363;48.764;9.172;2023-11-18T00:17:31;7.50;99.90
758;DHT22;363;48.764;9.172;2023-11-18T00:19:57;7.20;99.90
758;DHT22;363;48.764;9.172;2023-11-18T00:22:23;7.30;99.90
758;DHT22;363;48.764;9.172;2023-11-18T00:24:48;7.20;99.90
758;DHT22;363;48.764;9.172;2023-11-18T00:27:14;7.10;99.90
758;DHT22;363;48.764;9.172;2023-11-18T00:29:40;7.40;99.90
758;DHT22;363;48.764;9.172;2023-11-18T00:32:06;7.30;99.90
758;DHT22;363;48.764;9.172;2023-11-18T00:34:32;7.80;99.90
758;DHT22;363;48.764;9.172;2023-11-18T00:36:58;7.80;99.90
758;DHT22;363;48.764;9.172;2023-11-18T00:39:24;7.30;99.90
758;DHT22;363;48.764;9.172;2023-11-18T00:41:50;7.90;99.90
758;DHT22;363;48.764;9.172;2023-11-18T00:44:15;7.30;99.90
758;DHT22;363;48.764;9.172;2023-11-18T00:46:41;7.40;99.90
758;DHT22;363;48.764;9.172;2023-11-18T00:49:07;7.40;99.90
758;DHT22;363;48.764;9.172;2023-11-18T00:51:32;7.90;99.90
758;DHT22;363;48.764;9.172;2023-11-18T00:53:58;7.70;99.90
758;DHT22;363;48.764;9.172;2023-11-18T00:56:26;7.90;99.90
758;DHT22;363;48.764;9.172;2023-11-18T00:58:53;7.50;99.90
758;DHT22;363;48.764;9.172;2023-11-18T01:01:18;7.90;99.90
758;DHT22;363;48.764;9.172;2023-11-18T01:03:45;7.40;99.90
758;DHT22;363;48.764;9.172;2023-11-18T01:06:11;7.50;99.90
758;DHT22;363;48.764;9.172;2023-11-18T01:08:36;7.50;99.90
758;DHT22;363;48.764;9.172;2023-11-18T01:11:02;7.70;99.90
758;DHT22;363;48.764;9.172;2023-11-18T01:13:30;7.50;99.90
758;DHT22;363;48.764;9.172;2023-11-18T01:15:56;7.50;99.90
758;DHT22;363;48.764;9.172;2023-11-18T01:18:23;7.50;99.90
758;DHT22;363;48.764;9.172;2023-11-18T01:20:48;7.80;99.90
758;DHT22;363;48.764;9.172;2023-11-18T01:23:14;7.70;99.90
758;DHT22;363;48.764;9.172;2023-11-18T01:25:39;7.40;99.90
758;DHT22;363;48.764;9.172;2023-11-18T01:28:06;7.50;99.90
758;DHT22;363;48.764;9.172;2023-11-18T01:30:31;7.50;99.90
758;DHT22;363;48.764;9.172;2023-11-18T01:32:58;7.00;99.90
758;DHT22;363;48.764;9.172;2023-11-18T01:35:26;7.60;99.90
758;DHT22;363;48.764;9.172;2023-11-18T01:37:52;8.10;99.90
758;DHT22;363;48.764;9.172;2023-11-18T01:40:18;7.40;99.90
758;DHT22;363;48.764;9.172;2023-11-18T01:42:44;7.70;99.90
758;DHT22;363;48.764;9.172;2023-11-18T01:45:12;7.70;99.90
758;DHT22;363;48.764;9.172;2023-11-18T01:47:38;7.50;99.90
758;DHT22;363;48.764;9.172;2023-11-18T01:50:07;7.50;99.90
758;DHT22;363;48.764;9.172;2023-11-18T01:52:34;7.60;99.90
758;DHT22;363;48.764;9.172;2023-11-18T01:55:00;7.30;99.90
758;DHT22;363;48.764;9.172;2023-11-18T01:57:27;8.00;99.90
758;DHT22;363;48.764;9.172;2023-11-18T01:59:53;8.10;99.90
758;DHT22;363;48.764;9.172;2023-11-18T02:02:19;7.80;99.90
758;DHT22;363;48.764;9.172;2023-11-18T02:04:48;7.60;99.90
758;DHT22;363;48.764;9.172;2023-11-18T02:07:14;7.70;99.90
758;DHT22;363;48.764;9.172;2023-11-18T02:09:41;7.40;99.90
758;DHT22;363;48.764;9.172;2023-11-18T02:12:21;7.90;99.90
758;DHT22;363;48.764;9.172;2023-11-18T02:14:49;7.80;99.90
758;DHT22;363;48.764;9.172;2023-11-18T02:17:18;7.50;99.90
758;DHT22;363;48.764;9.172;2023-11-18T02:19:44;8.20;99.90
758;DHT22;363;48.764;9.172;2023-11-18T02:22:11;7.50;99.90
758;DHT22;363;48.764;9.172;2023-11-18T02:24:36;7.30;99.90
758;DHT22;363;48.764;9.172;2023-11-18T02:27:03;7.30;99.90
758;DHT22;363;48.764;9.172;2023-11-18T02:29:36;7.20;99.90
758;DHT22;363;48.764;9.172;2023-11-18T02:32:25;7.20;99.90
758;DHT22;363;48.764;9.172;2023-11-18T02:35:32;7.40;99.90
758;DHT22;363;48.764;9.172;2023-11-18T02:38:00;7.40;99.90
758;DHT22;363;48.764;9.172;2023-11-18T02:40:36;7.90;99.90
758;DHT22;363;48.764;9.172;2023-11-18T02:43:04;7.40;99.90
758;DHT22;363;48.764;9.172;2023-11-18T02:45:31;7.50;99.90
758;DHT22;363;48.764;9.172;2023-11-18T02:47:58;7.40;99.90
758;DHT22;363;48.764;9.172;2023-11-18T02:50:25;7.50;99.90
758;DHT22;363;48.764;9.172;2023-11-18T02:52:50;7.40;99.90
758;DHT22;363;48.764;9.172;2023-11-18T02:55:16;7.20;99.90
758;DHT22;363;48.764;9.172;2023-11-18T02:57:41;7.30;99.90
758;DHT22;363;48.764;9.172;2023-11-18T03:00:08;7.50;99.90
758;DHT22;363;48.764;9.172;2023-11-18T03:02:42;7.40;99.90
758;DHT22;363;48.764;9.172;2023-11-18T03:05:08;7.30;99.90
758;DHT22;363;48.764;9.172;2023-11-18T03:07:43;7.40;99.90
758;DHT22;363;48.764;9.172;2023-11-18T03:10:10;7.40;99.90
758;DHT22;363;48.764;9.172;2023-11-18T03:12:37;7.50;99.90
758;DHT22;363;48.764;9.172;2023-11-18T03:15:05;7.40;99.90
758;DHT22;363;48.764;9.172;2023-11-18T03:17:30;7.20;99.90
758;DHT22;363;48.764;9.172;2023-11-18T03:19:56;7.00;99.90
758;DHT22;363;48.764;9.172;2023-11-18T03:22:22;7.40;99.90
758;DHT22;363;48.764;9.172;2023-11-18T03:24:49;6.70;99.90
758;DHT22;363;48.764;9.172;2023-11-18T03:27:14;7.00;99.90
758;DHT22;363;48.764;9.172;2023-11-18T03:29:40;6.70;99.90
758;DHT22;363;48.764;9.172;2023-11-18T03:32:06;6.90;99.90
758;DHT22;363;48.764;9.172;2023-11-18T03:34:31;6.90;99.90
758;DHT22;363;48.764;9.172;2023-11-18T03:36:57;7.10;99.90
758;DHT22;363;48.764;9.172;2023-11-18T03:39:23;6.60;99.90
758;DHT22;363;48.764;9.172;2023-11-18T03:41:48;6.80;99.90
758;DHT22;363;48.764;9.172;2023-11-18T03:44:15;6.80;99.90
758;DHT22;363;48.764;9.172;2023-11-18T03:46:40;6.70;99.90
758;DHT22;363;48.764;9.172;2023-11-18T03:49:07;6.60;99.90
758;DHT22;363;48.764;9.172;2023-11-18T03:51:33;6.70;99.90
758;DHT22;363;48.764;9.172;2023-11-18T03:53:58;6.60;99.90
758;DHT22;363;48.764;9.172;2023-11-18T03:56:24;6.70;99.90
758;DHT22;363;48.764;9.172;2023-11-18T03:58:52;6.80;99.90
758;DHT22;363;48.764;9.172;2023-11-18T04:03:46;7.20;99.90
758;DHT22;363;48.764;9.172;2023-11-18T04:06:12;6.60;99.90
758;DHT22;363;48.764;9.172;2023-11-18T04:08:42;6.90;99.90
758;DHT22;363;48.764;9.172;2023-11-18T04:11:07;7.40;99.90
758;DHT22;363;48.764;9.172;2023-11-18T04:13:33;7.10;99.90
758;DHT22;363;48.764;9.172;2023-11-18T04:15:58;6.80;99.90
758;DHT22;363;48.764;9.172;2023-11-18T04:18:24;6.30;99.90
758;DHT22;363;48.764;9.172;2023-11-18T04:20:49;6.70;99.90
758;DHT22;363;48.764;9.172;2023-11-18T04:23:15;6.40;99.90
758;DHT22;363;48.764;9.172;2023-11-18T04:25:41;6.50;99.90
758;DHT22;363;48.764;9.172;2023-11-18T04:28:07;6.50;99.90
758;DHT22;363;48.764;9.172;2023-11-18T04:30:32;6.50;99.90
758;DHT22;363;48.764;9.172;2023-11-18T04:32:58;6.30;99.90
758;DHT22;363;48.764;9.172;2023-11-18T04:35:23;6.30;99.90
758;DHT22;363;48.764;9.172;2023-11-18T04:37:49;6.10;99.90
758;DHT22;363;48.764;9.172;2023-11-18T04:40:15;6.30;99.90
758;DHT22;363;48.764;9.172;2023-11-18T04:42:41;6.10;99.90
758;DHT22;363;48.764;9.172;2023-11-18T04:45:07;6.10;99.90
758;DHT22;363;48.764;9.172;2023-11-18T04:47:35;6.10;99.90
758;DHT22;363;48.764;9.172;2023-11-18T04:50:01;6.00;99.90
758;DHT22;363;48.764;9.172;2023-11-18T04:52:27;6.20;99.90
758;DHT22;363;48.764;9.172;2023-11-18T04:54:52;6.40;99.90
758;DHT22;363;48.764;9.172;2023-11-18T04:57:19;5.80;99.90
758;DHT22;363;48.764;9.172;2023-11-18T04:59:44;6.00;99.90
758;DHT22;363;48.764;9.172;2023-11-18T05:02:10;6.10;99.90
758;DHT22;363;48.764;9.172;2023-11-18T05:04:35;6.10;99.90
758;DHT22;363;48.764;9.172;2023-11-18T05:07:01;6.40;99.90
758;DHT22;363;48.764;9.172;2023-11-18T05:09:26;6.50;99.90
758;DHT22;363;48.764;9.172;2023-11-18T05:11:52;6.60;99.90
758;DHT22;363;48.764;9.172;2023-11-18T05:14:18;6.10;99.90
758;DHT22;363;48.764;9.172;2023-11-18T05:16:43;6.30;99.90
758;DHT22;363;48.764;9.172;2023-11-18T05:19:09;6.10;99.90
758;DHT22;363;48.764;9.172;2023-11-18T05:21:35;6.10;99.90
758;DHT22;363;48.764;9.172;2023-11-18T05:24:00;6.40;99.90
758;DHT22;363;48.764;9.172;2023-11-18T05:26:26;6.10;99.90
758;DHT22;363;48.764;9.172;2023-11-18T05:28:52;6.00;99.90
758;DHT22;363;48.764;9.172;2023-11-18T05:31:18;5.90;99.90
758;DHT22;363;48.764;9.172;2023-11-18T05:33:44;6.00;99.90
758;DHT22;363;48.764;9.172;2023-11-18T05:36:10;5.40;99.90
758;DHT22;363;48.764;9.172;2023-11-18T05:38:37;5.70;99.90
758;DHT22;363;48.764;9.172;2023-11-18T05:41:02;5.80;99.90
758;DHT22;363;48.764;9.172;2023-11-18T05:43:31;5.80;99.90
758;DHT22;363;48.764;9.172;2023-11-18T05:46:05;5.90;99.90
758;DHT22;363;48.764;9.172;2023-11-18T05:48:47;6.10;99.90
758;DHT22;363;48.764;9.172;2023-11-18T05:51:13;5.30;99.90
758;DHT22;363;48.764;9.172;2023-11-18T05:53:40;6.10;99.90
758;DHT22;363;48.764;9.172;2023-11-18T05:56:07;5.80;99.90
758;DHT22;363;48.764;9.172;2023-11-18T05:58:32;5.70;99.90
758;DHT22;363;48.764;9.172;2023-11-18T06:00:58;6.10;99.90
758;DHT22;363;48.764;9.172;2023-11-18T06:03:24;6.30;99.90
758;DHT22;363;48.764;9.172;2023-11-18T06:05:50;6.10;99.90
758;DHT22;363;48.764;9.172;2023-11-18T06:08:16;6.10;99.90
758;DHT22;363;48.764;9.172;2023-11-18T06:10:42;5.70;99.90
758;DHT22;363;48.764;9.172;2023-11-18T06:13:10;5.70;99.90
758;DHT22;363;48.764;9.172;2023-11-18T06:15:38;5.60;99.90
758;DHT22;363;48.764;9.172;2023-11-18T06:18:05;5.80;99.90
758;DHT22;363;48.764;9.172;2023-11-18T06:20:33;5.80;99.90
758;DHT22;363;48.764;9.172;2023-11-18T06:22:59;6.10;99.90
758;DHT22;363;48.764;9.172;2023-11-18T06:25:25;5.80;99.90
758;DHT22;363;48.764;9.172;2023-11-18T06:27:51;5.90;99.90
758;DHT22;363;48.764;9.172;2023-11-18T06:30:18;5.60;99.90
758;DHT22;363;48.764;9.172;2023-11-18T06:32:45;5.70;99.90
758;DHT22;363;48.764;9.172;2023-11-18T06:35:12;5.20;99.90
758;DHT22;363;48.764;9.172;2023-11-18T06:37:40;5.50;99.90
758;DHT22;363;48.764;9.172;2023-11-18T06:40:06;5.60;99.90
758;DHT22;363;48.764;9.172;2023-11-18T06:42:44;5.60;99.90
758;DHT22;363;48.764;9.172;2023-11-18T06:45:13;5.40;99.90
758;DHT22;363;48.764;9.172;2023-11-18T06:47:39;5.70;99.90
758;DHT22;363;48.764;9.172;2023-11-18T06:50:08;5.70;99.90
758;DHT22;363;48.764;9.172;2023-11-18T06:52:37;5.60;99.90
758;DHT22;363;48.764;9.172;2023-11-18T06:55:04;5.80;99.90
758;DHT22;363;48.764;9.172;2023-11-18T06:57:29;5.50;99.90
758;DHT22;363;48.764;9.172;2023-11-18T06:59:55;5.70;99.90
758;DHT22;363;48.764;9.172;2023-11-18T07:02:20;4.90;99.90
758;DHT22;363;48.764;9.172;2023-11-18T07:04:46;5.60;99.90
758;DHT22;363;48.764;9.172;2023-11-18T07:07:12;5.70;99.90
758;DHT22;363;48.764;9.172;2023-11-18T07:09:38;5.70;99.90
758;DHT22;363;48.764;9.172;2023-11-18T07:12:05;5.80;99.90
758;DHT22;363;48.764;9.172;2023-11-18T07:14:30;5.80;99.90
758;DHT22;363;48.764;9.172;2023-11-18T07:16:56;5.80;99.90
758;DHT22;363;48.764;9.172;2023-11-18T07:19:21;5.40;99.90
758;DHT22;363;48.764;9.172;2023-11-18T07:21:48;5.70;99.90
758;DHT22;363;48.764;9.172;2023-11-18T07:24:14;6.20;99.90
758;DHT22;363;48.764;9.172;2023-11-18T07:26:40;5.80;99.90
758;DHT22;363;48.764;9.172;2023-11-18T07:29:05;6.30;99.90
758;DHT22;363;48.764;9.172;2023-11-18T07:31:34;5.90;99.90
758;DHT22;363;48.764;9.172;2023-11-18T07:34:02;6.10;99.90
758;DHT22;363;48.764;9.172;2023-11-18T07:36:28;6.60;99.90
758;DHT22;363;48.764;9.172;2023-11-18T07:38:54;6.00;99.90
758;DHT22;363;48.764;9.172;2023-11-18T07:41:20;6.50;99.90
758;DHT22;363;48.764;9.172;2023-11-18T07:43:53;6.50;99.90
758;DHT22;363;48.764;9.172;2023-11-18T07:46:20;6.50;99.90
758;DHT22;363;48.764;9.172;2023-11-18T07:48:50;6.30;99.90
758;DHT22;363;48.764;9.172;2023-11-18T07:51:19;6.50;99.90
758;DHT22;363;48.764;9.172;2023-11-18T07:53:48;7.10;99.90
758;DHT22;363;48.764;9.172;2023-11-18T07:56:15;6.80;99.90
758;DHT22;363;48.764;9.172;2023-11-18T07:58:42;6.90;99.90
758;DHT22;363;48.764;9.172;2023-11-18T08:01:14;7.00;99.90
758;DHT22;363;48.764;9.172;2023-11-18T08:03:41;7.30;99.90
758;DHT22;363;48.764;9.172;2023-11-18T08:06:07;7.30;99.90
758;DHT22;363;48.764;9.172;2023-11-18T08:08:34;7.30;99.90
758;DHT22;363;48.764;9.172;2023-11-18T08:10:59;7.40;99.90
758;DHT22;363;48.764;9.172;2023-11-18T08:13:25;7.60;99.90
758;DHT22;363;48.764;9.172;2023-11-18T08:15:51;7.60;99.90
758;DHT22;363;48.764;9.172;2023-11-18T08:18:17;7.60;99.90
758;DHT22;363;48.764;9.172;2023-11-18T08:20:43;8.00;99.90
758;DHT22;363;48.764;9.172;2023-11-18T08:23:09;8.10;99.90
758;DHT22;363;48.764;9.172;2023-11-18T08:25:41;7.90;99.90
758;DHT22;363;48.764;9.172;2023-11-18T08:28:11;8.10;99.90
758;DHT22;363;48.764;9.172;2023-11-18T08:30:37;8.50;99.90
758;DHT22;363;48.764;9.172;2023-11-18T08:33:03;8.50;99.90
758;DHT22;363;48.764;9.172;2023-11-18T08:35:37;8.40;99.90
758;DHT22;363;48.764;9.172;2023-11-18T08:38:03;8.30;99.90
758;DHT22;363;48.764;9.172;2023-11-18T08:40:30;8.70;99.90
758;DHT22;363;48.764;9.172;2023-11-18T08:42:55;8.20;99.90
758;DHT22;363;48.764;9.172;2023-11-18T08:45:26;8.60;99.90
758;DHT22;363;48.764;9.172;2023-11-18T08:48:01;8.40;99.90
758;DHT22;363;48.764;9.172;2023-11-18T08:50:29;8.40;99.90
758;DHT22;363;48.764;9.172;2023-11-18T08:52:56;8.60;99.90
758;DHT22;363;48.764;9.172;2023-11-18T08:55:28;8.10;99.90
758;DHT22;363;48.764;9.172;2023-11-18T08:58:08;8.80;99.90
758;DHT22;363;48.764;9.172;2023-11-18T09:00:47;9.20;99.90
758;DHT22;363;48.764;9.172;2023-11-18T09:03:26;9.00;99.90
758;DHT22;363;48.764;9.172;2023-11-18T09:08:37;9.00;99.90
758;DHT22;363;48.764;9.172;2023-11-18T09:11:09;9.20;99.90
758;DHT22;363;48.764;9.172;2023-11-18T09:13:41;9.10;99.90
758;DHT22;363;48.764;9.172;2023-11-18T09:16:08;9.20;99.90
758;DHT22;363;48.764;9.172;2023-11-18T09:18:35;9.30;99.90
758;DHT22;363;48.764;9.172;2023-11-18T09:21:01;9.10;99.90
758;DHT22;363;48.764;9.172;2023-11-18T09:23:29;9.20;99.90
758;DHT22;363;48.764;9.172;2023-11-18T09:25:57;8.50;99.90
758;DHT22;363;48.764;9.172;2023-11-18T09:28:27;10.80;99.90
758;DHT22;363;48.764;9.172;2023-11-18T09:30:56;10.40;99.90
758;DHT22;363;48.764;9.172;2023-11-18T09:33:29;9.60;99.90
758;DHT22;363;48.764;9.172;2023-11-18T09:36:04;11.80;99.90
758;DHT22;363;48.764;9.172;2023-11-18T09:38:34;9.50;99.90
758;DHT22;363;48.764;9.172;2023-11-18T09:41:05;9.30;99.90
758;DHT22;363;48.764;9.172;2023-11-18T09:43:37;10.20;99.90
758;DHT22;363;48.764;9.172;2023-11-18T09:46:16;9.30;99.90
758;DHT22;363;48.764;9.172;2023-11-18T09:48:48;10.20;99.90
758;DHT22;363;48.764;9.172;2023-11-18T09:51:32;10.00;99.90
758;DHT22;363;48.764;9.172;2023-11-18T09:54:02;9.60;99.90
758;DHT22;363;48.764;9.172;2023-11-18T09:56:41;11.70;99.90
758;DHT22;363;48.764;9.172;2023-11-18T10:01:57;10.10;99.90
758;DHT22;363;48.764;9.172;2023-11-18T10:04:26;12.50;99.90
758;DHT22;363;48.764;9.172;2023-11-18T10:07:01;10.20;99.90
758;DHT22;363;48.764;9.172;2023-11-18T10:09:28;11.90;99.90
758;DHT22;363;48.764;9.172;2023-11-18T10:11:54;11.80;99.90
758;DHT22;363;48.764;9.172;2023-11-18T10:14:27;10.40;99.90
758;DHT22;363;48.764;9.172;2023-11-18T10:16:52;10.80;99.90
758;DHT22;363;48.764;9.172;2023-11-18T10:19:19;9.80;99.90
758;DHT22;363;48.764;9.172;2023-11-18T10:21:46;13.20;99.90
758;DHT22;363;48.764;9.172;2023-11-18T10:24:14;11.00;99.90
758;DHT22;363;48.764;9.172;2023-11-18T10:26:45;11.70;99.90
758;DHT22;363;48.764;9.172;2023-11-18T10:29:11;11.30;99.90
758;DHT22;363;48.764;9.172;2023-11-18T10:31:39;11.90;99.90
758;DHT22;363;48.764;9.172;2023-11-18T10:34:14;12.10;99.90
758;DHT22;363;48.764;9.172;2023-11-18T10:36:59;12.40;99.90
758;DHT22;363;48.764;9.172;2023-11-18T10:39:29;12.50;99.90
758;DHT22;363;48.764;9.172;2023-11-18T10:41:59;11.30;99.90
758;DHT22;363;48.764;9.172;2023-11-18T10:44:29;11.60;99.90
758;DHT22;363;48.764;9.172;2023-11-18T10:46:56;10.90;99.90
758;DHT22;363;48.764;9.172;2023-11-18T10:49:29;12.90;99.90
758;DHT22;363;48.764;9.172;2023-11-18T10:52:02;11.50;99.90
758;DHT22;363;48.764;9.172;2023-11-18T10:54:28;11.20;99.90
758;DHT22;363;48.764;9.172;2023-11-18T10:56:54;12.00;99.90
758;DHT22;363;48.764;9.172;2023-11-18T10:59:22;11.70;99.90
758;DHT22;363;48.764;9.172;2023-11-18T11:01:48;13.00;99.90
758;DHT22;363;48.764;9.172;2023-11-18T11:04:17;11.70;99.90
758;DHT22;363;48.764;9.172;2023-11-18T11:06:46;13.20;99.90
758;DHT22;363;48.764;9.172;2023-11-18T11:09:21;12.20;99.90
758;DHT22;363;48.764;9.172;2023-11-18T11:11:59;11.50;99.90
758;DHT22;363;48.764;9.172;2023-11-18T11:14:34;13.90;99.90
758;DHT22;363;48.764;9.172;2023-11-18T11:17:08;11.70;99.90
758;DHT22;363;48.764;9.172;2023-11-18T11:19:52;13.30;99.90
758;DHT22;363;48.764;9.172;2023-11-18T11:22:25;12.60;99.90
758;DHT22;363;48.764;9.172;2023-11-18T11:25:09;12.20;99.90
758;DHT22;363;48.764;9.172;2023-11-18T11:27:59;11.70;99.90
758;DHT22;363;48.764;9.172;2023-11-18T11:30:46;13.00;99.90
758;DHT22;363;48.764;9.172;2023-11-18T11:33:28;11.20;99.90
758;DHT22;363;48.764;9.172;2023-11-18T11:35:56;10.20;99.90
758;DHT22;363;48.764;9.172;2023-11-18T11:38:25;12.90;99.90
758;DHT22;363;48.764;9.172;2023-11-18T11:40:55;12.80;99.90
758;DHT22;363;48.764;9.172;2023-11-18T11:43:26;12.60;99.90
758;DHT22;363;48.764;9.172;2023-11-18T11:45:54;11.20;99.90
758;DHT22;363;48.764;9.172;2023-11-18T11:48:29;11.20;99.90
758;DHT22;363;48.764;9.172;2023-11-18T11:51:25;11.50;99.90
758;DHT22;363;48.764;9.172;2023-11-18T11:54:12;11.10;99.90
758;DHT22;363;48.764;9.172;2023-11-18T11:56:45;11.70;99.90
758;DHT22;363;48.764;9.172;2023-11-18T12:02:10;12.60;99.90
758;DHT22;363;48.764;9.172;2023-11-18T12:04:37;11.80;99.90
758;DHT22;363;48.764;9.172;2023-11-18T12:07:09;12.60;99.90
758;DHT22;363;48.764;9.172;2023-11-18T12:09:59;13.80;99.90
758;DHT22;363;48.764;9.172;2023-11-18T12:19:43;10.90;99.90
758;DHT22;363;48.764;9.172;2023-11-18T12:22:26;11.10;99.90
758;DHT22;363;48.764;9.172;2023-11-18T12:27:56;11.30;99.90
758;DHT22;363;48.764;9.172;2023-11-18T12:49:15;11.20;99.90
758;DHT22;363;48.764;9.172;2023-11-18T12:55:04;11.60;99.80
758;DHT22;363;48.764;9.172;2023-11-18T13:04:48;10.80;99.90
758;DHT22;363;48.764;9.172;2023-11-18T13:07:18;10.90;99.80
758;DHT22;363;48.764;9.172;2023-11-18T13:09:53;10.10;99.60
758;DHT22;363;48.764;9.172;2023-11-18T13:12:19;13.00;99.90
758;DHT22;363;48.764;9.172;2023-11-18T13:14:49;9.80;99.90
758;DHT22;363;48.764;9.172;2023-11-18T13:17:15;11.30;99.90
758;DHT22;363;48.764;9.172;2023-11-18T13:19:45;12.10;99.90
758;DHT22;363;48.764;9.172;2023-11-18T13:22:12;10.90;99.90
758;DHT22;363;48.764;9.172;2023-11-18T13:24:39;12.00;99.90
758;DHT22;363;48.764;9.172;2023-11-18T13:27:06;10.50;99.90
758;DHT22;363;48.764;9.172;2023-11-18T13:29:55;10.20;99.90
758;DHT22;363;48.764;9.172;2023-11-18T13:32:21;11.20;99.90
758;DHT22;363;48.764;9.172;2023-11-18T13:37:48;10.40;99.90
758;DHT22;363;48.764;9.172;2023-11-18T13:40:15;9.90;99.90
758;DHT22;363;48.764;9.172;2023-11-18T13:42:43;10.70;99.90
758;DHT22;363;48.764;9.172;2023-11-18T13:45:12;10.30;99.90
758;DHT22;363;48.764;9.172;2023-11-18T13:47:48;10.40;99.90
758;DHT22;363;48.764;9.172;2023-11-18T13:50:16;10.40;99.90
758;DHT22;363;48.764;9.172;2023-11-18T13:52:42;10.70;99.90
758;DHT22;363;48.764;9.172;2023-11-18T13:55:10;12.20;99.90
758;DHT22;363;48.764;9.172;2023-11-18T13:57:43;9.60;99.90
758;DHT22;363;48.764;9.172;2023-11-18T14:00:10;12.20;99.90
758;DHT22;363;48.764;9.172;2023-11-18T14:02:41;10.80;99.90
758;DHT22;363;48.764;9.172;2023-11-18T14:05:15;12.30;99.90
758;DHT22;363;48.764;9.172;2023-11-18T14:07:43;12.20;99.90
758;DHT22;363;48.764;9.172;2023-11-18T14:10:10;10.70;99.90
758;DHT22;363;48.764;9.172;2023-11-18T14:12:39;10.60;99.90
758;DHT22;363;48.764;9.172;2023-11-18T14:15:05;12.00;99.90
758;DHT22;363;48.764;9.172;2023-11-18T14:17:35;10.70;99.90
758;DHT22;363;48.764;9.172;2023-11-18T14:20:01;11.40;99.90
758;DHT22;363;48.764;9.172;2023-11-18T14:22:27;9.50;99.90
758;DHT22;363;48.764;9.172;2023-11-18T14:24:53;12.70;99.90
758;DHT22;363;48.764;9.172;2023-11-18T14:27:19;13.30;99.90
758;DHT22;363;48.764;9.172;2023-11-18T14:32:12;10.40;99.90
758;DHT22;363;48.764;9.172;2023-11-18T14:34:39;12.10;99.90
758;DHT22;363;48.764;9.172;2023-11-18T14:39:33;10.30;99.90
758;DHT22;363;48.764;9.172;2023-11-18T14:42:01;11.40;99.90
758;DHT22;363;48.764;9.172;2023-11-18T14:44:36;11.70;99.90
758;DHT22;363;48.764;9.172;2023-11-18T14:49:31;10.10;99.90
758;DHT22;363;48.764;9.172;2023-11-18T14:51:57;10.80;99.90
758;DHT22;363;48.764;9.172;2023-11-18T14:54:23;12.10;99.90
758;DHT22;363;48.764;9.172;2023-11-18T14:56:51;12.20;99.90
758;DHT22;363;48.764;9.172;2023-11-18T14:59:17;10.00;99.90
758;DHT22;363;48.764;9.172;2023-11-18T15:01:49;10.60;99.90
758;DHT22;363;48.764;9.172;2023-11-18T15:04:14;11.20;99.90
758;DHT22;363;48.764;9.172;2023-11-18T15:06:49;10.90;99.90
758;DHT22;363;48.764;9.172;2023-11-18T15:09:27;9.90;99.90
758;DHT22;363;48.764;9.172;2023-11-18T15:12:09;9.30;99.90
758;DHT22;363;48.764;9.172;2023-11-18T15:14:35;10.50;99.90
758;DHT22;363;48.764;9.172;2023-11-18T15:17:00;9.90;99.90
758;DHT22;363;48.764;9.172;2023-11-18T15:22:10;10.60;99.90
758;DHT22;363;48.764;9.172;2023-11-18T15:24:38;10.40;99.90
758;DHT22;363;48.764;9.172;2023-11-18T15:27:04;10.60;99.90
758;DHT22;363;48.764;9.172;2023-11-18T15:29:30;10.10;99.90
758;DHT22;363;48.764;9.172;2023-11-18T15:32:10;12.50;99.90
758;DHT22;363;48.764;9.172;2023-11-18T15:34:39;10.10;99.90
758;DHT22;363;48.764;9.172;2023-11-18T15:37:05;9.50;99.90
758;DHT22;363;48.764;9.172;2023-11-18T15:39:31;9.20;99.90
758;DHT22;363;48.764;9.172;2023-11-18T15:42:24;11.50;99.90
758;DHT22;363;48.764;9.172;2023-11-18T15:44:50;9.10;99.90
758;DHT22;363;48.764;9.172;2023-11-18T15:47:19;9.80;99.90
758;DHT22;363;48.764;9.172;2023-11-18T15:52:11;10.20;99.90
758;DHT22;363;48.764;9.172;2023-11-18T15:54:37;10.00;99.90
758;DHT22;363;48.764;9.172;2023-11-18T15:57:03;10.60;99.90
758;DHT22;363;48.764;9.172;2023-11-18T15:59:29;10.10;99.90
758;DHT22;363;48.764;9.172;2023-11-18T16:01:54;10.10;99.90
758;DHT22;363;48.764;9.172;2023-11-18T16:04:20;10.20;99.90
758;DHT22;363;48.764;9.172;2023-11-18T16:06:55;10.00;99.90
758;DHT22;363;48.764;9.172;2023-11-18T16:12:16;9.90;99.90
758;DHT22;363;48.764;9.172;2023-11-18T16:14:41;8.70;99.90
758;DHT22;363;48.764;9.172;2023-11-18T16:17:07;11.20;99.90
758;DHT22;363;48.764;9.172;2023-11-18T16:19:36;10.60;99.90
758;DHT22;363;48.764;9.172;2023-11-18T16:22:27;10.30;99.90
758;DHT22;363;48.764;9.172;2023-11-18T16:25:30;10.30;99.90
758;DHT22;363;48.764;9.172;2023-11-18T16:27:58;9.90;99.90
758;DHT22;363;48.764;9.172;2023-11-18T16:30:26;9.90;99.90
758;DHT22;363;48.764;9.172;2023-11-18T16:32:58;9.90;99.90
758;DHT22;363;48.764;9.172;2023-11-18T16:35:24;9.60;99.90
758;DHT22;363;48.764;9.172;2023-11-18T16:37:51;10.10;99.90
758;DHT22;363;48.764;9.172;2023-11-18T16:40:17;10.10;99.90
758;DHT22;363;48.764;9.172;2023-11-18T16:42:55;9.90;99.90
758;DHT22;363;48.764;9.172;2023-11-18T16:45:23;10.20;99.90
758;DHT22;363;48.764;9.172;2023-11-18T16:47:49;9.90;99.90
758;DHT22;363;48.764;9.172;2023-11-18T16:50:20;10.90;99.90
758;DHT22;363;48.764;9.172;2023-11-18T16:52:46;10.30;99.90
758;DHT22;363;48.764;9.172;2023-11-18T16:55:13;11.90;99.90
758;DHT22;363;48.764;9.172;2023-11-18T16:57:39;9.90;99.90
758;DHT22;363;48.764;9.172;2023-11-18T17:00:09;10.00;99.90
758;DHT22;363;48.764;9.172;2023-11-18T17:02:45;9.80;99.90
758;DHT22;363;48.764;9.172;2023-11-18T17:05:21;10.00;99.90
758;DHT22;363;48.764;9.172;2023-11-18T17:07:46;10.20;99.90
758;DHT22;363;48.764;9.172;2023-11-18T17:10:14;9.90;99.90
758;DHT22;363;48.764;9.172;2023-11-18T17:12:44;10.00;99.90
758;DHT22;363;48.764;9.172;2023-11-18T17:15:19;9.70;99.90
758;DHT22;363;48.764;9.172;2023-11-18T17:17:46;10.00;99.90
758;DHT22;363;48.764;9.172;2023-11-18T17:20:14;9.80;99.90
758;DHT22;363;48.764;9.172;2023-11-18T17:22:42;10.00;99.90
758;DHT22;363;48.764;9.172;2023-11-18T17:25:09;9.90;99.90
758;DHT22;363;48.764;9.172;2023-11-18T17:27:36;9.90;99.90
758;DHT22;363;48.764;9.172;2023-11-18T17:30:05;10.00;99.90
758;DHT22;363;48.764;9.172;2023-11-18T17:32:31;9.90;99.90
758;DHT22;363;48.764;9.172;2023-11-18T17:34:57;10.20;99.90
758;DHT22;363;48.764;9.172;2023-11-18T17:37:24;9.80;99.90
758;DHT22;363;48.764;9.172;2023-11-18T17:39:51;9.90;99.90
758;DHT22;363;48.764;9.172;2023-11-18T17:42:16;10.00;99.90
758;DHT22;363;48.764;9.172;2023-11-18T17:44:45;9.80;99.90
758;DHT22;363;48.764;9.172;2023-11-18T17:47:11;9.80;99.90
758;DHT22;363;48.764;9.172;2023-11-18T17:49:36;10.30;99.90
758;DHT22;363;48.764;9.172;2023-11-18T17:52:02;10.00;99.90
758;DHT22;363;48.764;9.172;2023-11-18T17:54:29;10.10;99.90
758;DHT22;363;48.764;9.172;2023-11-18T17:56:54;9.80;99.90
758;DHT22;363;48.764;9.172;2023-11-18T17:59:20;10.20;99.90
758;DHT22;363;48.764;9.172;2023-11-18T18:01:45;9.90;99.90
758;DHT22;363;48.764;9.172;2023-11-18T18:04:11;10.00;99.90